createdAt,value
2023-04-14T00:00:46.300Z,57.20
2023-04-14T00:03:13.421Z,57.18
2023-04-14T00:05:40.619Z,56.92
2023-04-14T00:08:07.565Z,56.87
2023-04-14T00:10:34.496Z,56.74
2023-04-14T00:13:02.096Z,56.91
2023-04-14T00:15:29.133Z,56.99
2023-04-14T00:17:57.414Z,56.84
2023-04-14T00:20:24.617Z,57.69
2023-04-14T00:22:51.740Z,57.62
2023-04-14T00:25:19.524Z,57.22
2023-04-14T00:27:46.408Z,57.35
2023-04-14T00:30:13.940Z,57.32
2023-04-14T00:32:40.903Z,56.73
2023-04-14T00:35:09.602Z,56.64
2023-04-14T00:37:36.526Z,56.58
2023-04-14T00:40:03.843Z,57.00
2023-04-14T00:42:31.861Z,57.04
2023-04-14T00:44:58.832Z,56.89
2023-04-14T00:47:26.994Z,56.77
2023-04-14T00:49:53.929Z,56.50
2023-04-14T00:52:25.465Z,56.75
2023-04-14T00:54:52.483Z,56.86
2023-04-14T00:57:19.515Z,56.92
2023-04-14T00:59:46.433Z,56.99
2023-04-14T01:02:13.602Z,56.70
2023-04-14T01:04:53.025Z,56.70
2023-04-14T01:07:25.564Z,56.80
2023-04-14T01:09:55.768Z,56.73
2023-04-14T01:12:38.861Z,56.63
2023-04-14T01:15:17.078Z,56.89
2023-04-14T01:17:53.028Z,57.01
2023-04-14T01:20:29.185Z,57.29
2023-04-14T01:23:06.263Z,56.74
2023-04-14T01:26:20.661Z,56.97
2023-04-14T01:29:44.054Z,56.62
2023-04-14T01:32:21.360Z,56.79
2023-04-14T01:34:55.628Z,56.97
2023-04-14T01:37:30.572Z,56.89
2023-04-14T01:40:03.132Z,56.89
2023-04-14T01:42:36.457Z,57.14
2023-04-14T01:45:11.712Z,56.92
2023-04-14T01:47:42.442Z,57.33
2023-04-14T01:50:13.367Z,56.77
2023-04-14T01:52:44.311Z,57.13
2023-04-14T01:55:15.415Z,57.60
2023-04-14T01:57:46.143Z,57.47
2023-04-14T02:00:16.337Z,57.85
2023-04-14T02:02:48.837Z,57.83
2023-04-14T02:05:18.310Z,57.24
2023-04-14T02:07:47.799Z,57.55
2023-04-14T02:10:17.526Z,57.10
2023-04-14T02:12:45.689Z,57.35
2023-04-14T02:15:17.284Z,57.05
2023-04-14T02:17:49.319Z,57.20
2023-04-14T02:20:17.102Z,56.68
2023-04-14T02:22:44.069Z,57.30
2023-04-14T02:25:11.229Z,57.08
2023-04-14T02:27:48.422Z,57.13
2023-04-14T02:30:22.417Z,57.00
2023-04-14T02:33:01.780Z,57.42
2023-04-14T02:35:37.884Z,57.63
2023-04-14T02:38:13.688Z,57.74
2023-04-14T02:40:43.752Z,58.33
2023-04-14T02:43:18.025Z,57.73
2023-04-14T02:45:49.026Z,58.33
2023-04-14T02:48:21.344Z,58.13
2023-04-14T02:50:53.180Z,57.36
2023-04-14T02:53:24.264Z,56.81
2023-04-14T02:55:54.575Z,56.36
2023-04-14T02:58:22.091Z,56.18
2023-04-14T03:00:52.109Z,56.36
2023-04-14T03:03:21.179Z,56.07
2023-04-14T03:05:48.860Z,56.20
2023-04-14T03:08:16.876Z,56.08
2023-04-14T03:10:48.048Z,56.46
2023-04-14T03:13:17.704Z,56.51
2023-04-14T03:15:46.544Z,57.15
2023-04-14T03:18:15.760Z,57.18
2023-04-14T03:20:45.891Z,57.10
2023-04-14T03:23:18.869Z,57.90
2023-04-14T03:25:47.948Z,57.64
2023-04-14T03:28:22.763Z,57.66
2023-04-14T03:30:54.998Z,58.54
2023-04-14T03:33:28.898Z,58.30
2023-04-14T03:36:00.293Z,57.85
2023-04-14T03:38:28.305Z,58.04
2023-04-14T03:40:59.869Z,58.12
2023-04-14T03:43:29.371Z,58.34
2023-04-14T03:45:58.075Z,57.87
2023-04-14T03:48:29.691Z,58.03
2023-04-14T03:50:59.934Z,58.01
2023-04-14T03:53:31.036Z,57.50
2023-04-14T03:55:59.988Z,57.38
2023-04-14T03:58:31.030Z,57.45
2023-04-14T04:00:59.395Z,57.58
2023-04-14T04:03:28.807Z,57.73
2023-04-14T04:05:57.778Z,56.93
2023-04-14T04:08:25.690Z,57.09
2023-04-14T04:11:07.768Z,57.86
2023-04-14T04:13:41.947Z,57.43
2023-04-14T04:16:13.207Z,57.96
2023-04-14T04:18:46.763Z,58.01
2023-04-14T04:21:19.224Z,58.24
2023-04-14T04:23:52.400Z,58.60
2023-04-14T04:26:19.722Z,57.97
2023-04-14T04:28:47.278Z,57.33
2023-04-14T04:31:15.942Z,56.97
2023-04-14T04:33:45.134Z,57.43
2023-04-14T04:36:13.569Z,57.10
2023-04-14T04:38:42.846Z,57.23
2023-04-14T04:41:21.669Z,57.27
2023-04-14T04:43:48.548Z,57.29
2023-04-14T04:46:39.164Z,58.22
2023-04-14T04:49:06.122Z,58.03
2023-04-14T04:51:33.154Z,58.50
2023-04-14T04:54:01.372Z,58.86
2023-04-14T04:56:28.264Z,58.07
2023-04-14T04:58:55.137Z,57.49
2023-04-14T05:01:22.066Z,56.76
2023-04-14T05:03:49.008Z,56.47
2023-04-14T05:06:16.556Z,56.60
2023-04-14T05:08:43.517Z,56.90
2023-04-14T05:11:11.928Z,56.40
2023-04-14T05:13:38.940Z,56.80
2023-04-14T05:16:09.150Z,57.56
2023-04-14T05:18:36.792Z,57.86
2023-04-14T05:21:04.963Z,57.33
2023-04-14T05:23:34.430Z,56.64
2023-04-14T05:26:16.224Z,56.91
2023-04-14T05:28:49.864Z,57.29
2023-04-14T05:31:16.902Z,56.77
2023-04-14T05:33:43.953Z,57.22
2023-04-14T05:36:11.264Z,56.81
2023-04-14T05:38:42.023Z,56.39
2023-04-14T05:41:09.084Z,56.68
2023-04-14T05:43:36.771Z,56.37
2023-04-14T05:46:05.575Z,56.13
2023-04-14T05:48:33.368Z,56.22
2023-04-14T05:51:00.660Z,56.99
2023-04-14T05:53:27.774Z,57.33
2023-04-14T05:55:56.906Z,57.80
2023-04-14T05:58:26.374Z,57.49
2023-04-14T06:00:53.398Z,57.05
2023-04-14T06:03:21.874Z,56.95
2023-04-14T06:05:50.484Z,57.64
2023-04-14T06:08:18.697Z,56.92
2023-04-14T06:10:45.701Z,57.40
2023-04-14T06:13:12.613Z,57.19
2023-04-14T06:15:39.482Z,57.09
2023-04-14T06:18:06.454Z,56.53
2023-04-14T06:20:36.058Z,56.96
2023-04-14T06:23:03.059Z,56.25
2023-04-14T06:25:30.835Z,56.54
2023-04-14T06:27:57.774Z,55.89
2023-04-14T06:30:25.600Z,55.95
2023-04-14T06:32:54.446Z,55.90
2023-04-14T06:35:32.436Z,55.44
2023-04-14T06:38:02.267Z,55.68
2023-04-14T06:40:29.574Z,54.96
2023-04-14T06:42:56.605Z,55.21
2023-04-14T06:45:23.511Z,54.84
2023-04-14T06:47:50.786Z,55.02
2023-04-14T06:50:17.970Z,55.31
2023-04-14T06:52:44.900Z,55.06
2023-04-14T06:55:13.112Z,55.32
2023-04-14T06:57:40.369Z,54.52
2023-04-14T07:00:10.554Z,54.43
2023-04-14T07:02:56.064Z,54.56
2023-04-14T07:05:29.226Z,54.21
2023-04-14T07:07:56.136Z,54.03
2023-04-14T07:10:24.451Z,53.52
2023-04-14T07:12:51.428Z,53.68
2023-04-14T07:15:18.805Z,53.70
2023-04-14T07:17:45.809Z,53.60
2023-04-14T07:20:13.323Z,53.41
2023-04-14T07:22:40.614Z,53.60
2023-04-14T07:25:08.381Z,53.31
2023-04-14T07:27:36.761Z,52.05
2023-04-14T07:30:04.986Z,50.49
2023-04-14T07:32:32.965Z,48.61
2023-04-14T07:35:00.519Z,45.68
2023-04-14T07:37:27.472Z,44.08
2023-04-14T07:39:54.423Z,41.65
2023-04-14T07:42:21.632Z,38.54
2023-04-14T07:44:49.936Z,37.02
2023-04-14T07:47:19.087Z,35.59
2023-04-14T07:49:46.202Z,35.77
2023-04-14T07:52:13.122Z,32.89
2023-04-14T07:54:40.150Z,33.86
2023-04-14T07:57:09.867Z,32.34
2023-04-14T07:59:38.196Z,29.80
2023-04-14T08:02:07.455Z,29.12
2023-04-14T08:04:34.720Z,28.81
2023-04-14T08:07:01.758Z,28.59
2023-04-14T08:09:28.857Z,27.30
2023-04-14T08:11:57.225Z,26.17
2023-04-14T08:14:24.203Z,25.56
2023-04-14T08:16:51.504Z,25.56
2023-04-14T08:19:19.838Z,24.37
2023-04-14T08:21:47.205Z,24.51
2023-04-14T08:24:14.111Z,22.78
2023-04-14T08:26:41.162Z,22.78
2023-04-14T08:29:08.081Z,23.10
2023-04-14T08:31:35.511Z,23.71
2023-04-14T08:34:03.040Z,22.03
2023-04-14T08:36:31.443Z,21.88
2023-04-14T08:39:00.226Z,20.96
2023-04-14T08:41:32.133Z,21.05
2023-04-14T08:43:59.071Z,20.54
2023-04-14T08:46:28.454Z,20.27
2023-04-14T08:49:04.616Z,21.09
2023-04-14T08:51:36.579Z,20.80
2023-04-14T08:54:10.044Z,20.61
2023-04-14T08:56:39.372Z,20.92
2023-04-14T08:59:07.940Z,19.83
2023-04-14T09:01:36.928Z,20.48
2023-04-14T09:04:05.479Z,19.64
2023-04-14T09:06:35.471Z,20.34
2023-04-14T09:09:05.156Z,20.10
2023-04-14T09:11:32.288Z,19.15
2023-04-14T09:14:00.511Z,19.21
2023-04-14T09:16:28.835Z,19.07
2023-04-14T09:18:58.038Z,18.92
2023-04-14T09:21:52.950Z,18.35
2023-04-14T09:24:30.284Z,18.48
2023-04-14T09:27:01.892Z,19.04
2023-04-14T09:29:29.376Z,20.04
2023-04-14T09:31:56.925Z,20.83
2023-04-14T09:34:23.984Z,20.41
2023-04-14T09:37:05.136Z,19.82
2023-04-14T09:39:32.708Z,18.75
2023-04-14T09:41:59.827Z,17.82
2023-04-14T09:44:26.962Z,17.47
2023-04-14T09:46:59.336Z,16.84
2023-04-14T09:49:26.743Z,16.28
2023-04-14T09:51:57.463Z,17.07
2023-04-14T09:54:26.985Z,16.07
2023-04-14T09:56:54.719Z,15.65
2023-04-14T09:59:33.816Z,16.03
2023-04-14T10:02:04.738Z,15.79
2023-04-14T10:04:32.124Z,15.89
2023-04-14T10:06:59.977Z,17.02
2023-04-14T10:09:30.993Z,18.66
2023-04-14T10:12:12.794Z,19.55
2023-04-14T10:14:41.355Z,19.99
2023-04-14T10:17:09.261Z,19.24
2023-04-14T10:19:37.914Z,18.07
2023-04-14T10:22:06.327Z,17.59
2023-04-14T10:24:34.914Z,17.96
2023-04-14T10:27:03.610Z,19.39
2023-04-14T10:29:31.180Z,19.69
2023-04-14T10:32:05.921Z,20.91
2023-04-14T10:34:35.297Z,20.46
2023-04-14T10:37:13.697Z,19.91
2023-04-14T10:39:42.912Z,20.02
2023-04-14T10:42:10.662Z,19.71
2023-04-14T10:44:38.206Z,20.22
2023-04-14T10:47:08.412Z,20.72
2023-04-14T10:49:39.113Z,20.73
2023-04-14T10:52:33.144Z,20.00
2023-04-14T10:55:09.606Z,18.78
2023-04-14T10:57:40.903Z,18.61
2023-04-14T11:00:24.226Z,18.01
2023-04-14T11:02:57.765Z,17.81
2023-04-14T11:05:25.627Z,17.70
2023-04-14T11:08:00.701Z,17.01
2023-04-14T11:10:32.531Z,17.04
2023-04-14T11:13:05.286Z,17.27
2023-04-14T11:15:50.781Z,16.56
2023-04-14T11:18:32.202Z,16.51
2023-04-14T11:21:06.502Z,16.82
2023-04-14T11:23:35.170Z,18.54
2023-04-14T11:26:06.470Z,18.94
2023-04-14T11:28:35.428Z,19.29
2023-04-14T11:31:05.214Z,19.72
2023-04-14T11:33:35.835Z,19.64
2023-04-14T11:36:05.738Z,20.24
2023-04-14T11:38:35.907Z,19.86
2023-04-14T11:41:04.369Z,18.74
2023-04-14T11:43:31.848Z,18.05
2023-04-14T11:46:03.181Z,18.23
2023-04-14T11:48:33.678Z,19.23
2023-04-14T11:51:03.647Z,19.30
2023-04-14T11:53:32.021Z,19.83
2023-04-14T11:56:00.681Z,20.06
2023-04-14T11:58:29.219Z,19.49
2023-04-14T12:00:59.748Z,19.55
2023-04-14T12:03:28.265Z,19.23
2023-04-14T12:05:58.327Z,20.32
2023-04-14T12:08:25.851Z,20.52
2023-04-14T12:10:54.052Z,21.35
2023-04-14T12:13:21.297Z,20.76
2023-04-14T12:15:50.311Z,21.75
2023-04-14T12:20:52.843Z,22.70
2023-04-14T12:23:20.158Z,21.97
2023-04-14T12:25:50.509Z,22.64
2023-04-14T12:28:18.522Z,22.89
2023-04-14T12:30:54.087Z,23.72
2023-04-14T12:33:23.968Z,24.23
2023-04-14T12:35:51.467Z,24.29
2023-04-14T12:38:18.416Z,24.53
2023-04-14T12:40:47.879Z,24.92
2023-04-14T12:43:18.540Z,24.38
2023-04-14T12:45:48.690Z,22.85
2023-04-14T12:48:18.144Z,22.79
2023-04-14T12:50:45.690Z,21.76
2023-04-14T12:53:32.158Z,21.58
2023-04-14T12:56:08.087Z,21.46
2023-04-14T12:58:37.642Z,20.64
2023-04-14T13:01:06.845Z,20.67
2023-04-14T13:03:46.776Z,20.66
2023-04-14T13:06:16.923Z,20.68
2023-04-14T13:08:44.741Z,20.87
2023-04-14T13:11:12.209Z,20.31
2023-04-14T13:13:39.290Z,20.26
2023-04-14T13:16:15.423Z,20.24
2023-04-14T13:18:45.162Z,20.84
2023-04-14T13:21:12.943Z,21.30
2023-04-14T13:23:40.609Z,21.54
2023-04-14T13:26:07.830Z,20.94
2023-04-14T13:28:35.079Z,20.44
2023-04-14T13:31:02.540Z,20.69
2023-04-14T13:33:29.560Z,20.42
2023-04-14T13:35:57.896Z,20.92
2023-04-14T13:38:24.837Z,21.65
2023-04-14T13:40:51.762Z,22.46
2023-04-14T13:43:18.985Z,22.54
2023-04-14T13:45:46.911Z,23.60
2023-04-14T13:48:14.553Z,23.34
2023-04-14T13:50:42.255Z,24.14
2023-04-14T13:53:12.185Z,23.55
2023-04-14T13:55:39.280Z,23.06
2023-04-14T13:58:06.425Z,23.19
2023-04-14T14:00:33.836Z,23.98
2023-04-14T14:03:01.253Z,23.98
2023-04-14T14:05:29.029Z,24.49
2023-04-14T14:07:57.444Z,24.52
2023-04-14T14:10:25.789Z,25.31
2023-04-14T14:12:53.215Z,25.64
2023-04-14T14:15:20.341Z,25.72
2023-04-14T14:17:47.705Z,25.92
2023-04-14T14:20:14.696Z,26.19
2023-04-14T14:22:41.631Z,26.49
2023-04-14T14:25:19.249Z,26.65
2023-04-14T14:27:51.679Z,27.12
2023-04-14T14:30:18.744Z,26.50
2023-04-14T14:32:45.719Z,27.00
2023-04-14T14:35:12.828Z,26.88
2023-04-14T14:37:40.832Z,27.48
2023-04-14T14:40:09.610Z,27.27
2023-04-14T14:42:36.911Z,27.27
2023-04-14T14:45:06.917Z,27.08
2023-04-14T14:47:34.117Z,27.31
2023-04-14T14:50:04.362Z,27.74
2023-04-14T14:52:34.608Z,28.07
2023-04-14T14:55:01.922Z,27.52
2023-04-14T14:57:30.300Z,27.39
2023-04-14T14:59:57.706Z,27.17
2023-04-14T15:02:26.134Z,27.16
2023-04-14T15:04:54.438Z,27.59
2023-04-14T15:07:21.410Z,27.93
2023-04-14T15:09:50.650Z,27.66
2023-04-14T15:12:18.116Z,28.59
2023-04-14T15:14:45.152Z,28.29
2023-04-14T15:17:12.195Z,28.75
2023-04-14T15:19:42.013Z,28.33
2023-04-14T15:22:09.916Z,28.54
2023-04-14T15:24:36.825Z,28.71
2023-04-14T15:27:04.144Z,28.60
2023-04-14T15:29:31.754Z,28.14
2023-04-14T15:31:58.968Z,27.55
2023-04-14T15:34:27.709Z,27.03
2023-04-14T15:36:56.385Z,26.15
2023-04-14T15:39:23.489Z,26.46
2023-04-14T15:41:51.270Z,26.10
2023-04-14T15:44:18.598Z,25.83
2023-04-14T15:46:46.233Z,25.26
2023-04-14T15:49:13.167Z,25.34
2023-04-14T15:51:40.240Z,25.16
2023-04-14T15:54:08.481Z,25.37
2023-04-14T15:56:35.538Z,25.97
2023-04-14T15:59:02.461Z,26.83
2023-04-14T16:01:29.403Z,26.88
2023-04-14T16:03:56.550Z,27.57
2023-04-14T16:06:23.559Z,27.75
2023-04-14T16:08:50.535Z,27.77
2023-04-14T16:11:19.585Z,28.28
2023-04-14T16:13:46.751Z,28.74
2023-04-14T16:16:15.619Z,28.81
2023-04-14T16:18:42.675Z,28.98
2023-04-14T16:21:09.743Z,28.84
2023-04-14T16:23:36.704Z,28.93
2023-04-14T16:26:03.924Z,28.72
2023-04-14T16:28:32.314Z,29.21
2023-04-14T16:30:59.904Z,29.51
2023-04-14T16:33:27.482Z,29.27
2023-04-14T16:35:56.785Z,29.38
2023-04-14T16:38:23.829Z,29.00
2023-04-14T16:40:56.276Z,29.49
2023-04-14T16:43:24.504Z,29.60
2023-04-14T16:45:52.922Z,29.38
2023-04-14T16:48:20.129Z,29.91
2023-04-14T16:50:47.319Z,29.67
2023-04-14T16:53:14.535Z,30.12
2023-04-14T16:55:42.063Z,30.72
2023-04-14T16:58:09.785Z,30.48
2023-04-14T17:00:37.276Z,30.85
2023-04-14T17:03:06.876Z,31.31
2023-04-14T17:05:34.007Z,31.49
2023-04-14T17:08:00.933Z,32.06
2023-04-14T17:10:29.522Z,32.14
2023-04-14T17:12:56.767Z,31.85
2023-04-14T17:15:23.757Z,32.05
2023-04-14T17:17:50.930Z,31.92
2023-04-14T17:20:19.792Z,31.97
2023-04-14T17:22:48.209Z,31.76
2023-04-14T17:25:19.785Z,31.18
2023-04-14T17:27:48.036Z,31.35
2023-04-14T17:30:15.159Z,31.46
2023-04-14T17:32:42.270Z,32.07
2023-04-14T17:35:10.357Z,32.46
2023-04-14T17:37:38.993Z,32.13
2023-04-14T17:40:10.727Z,32.39
2023-04-14T17:42:38.643Z,32.98
2023-04-14T17:45:08.948Z,32.71
2023-04-14T17:47:38.063Z,32.89
2023-04-14T17:50:06.782Z,33.04
2023-04-14T17:52:35.369Z,32.95
2023-04-14T17:55:04.588Z,33.14
2023-04-14T17:57:31.661Z,33.53
2023-04-14T17:59:59.045Z,33.86
2023-04-14T18:02:26.186Z,34.04
2023-04-14T18:04:53.105Z,34.37
2023-04-14T18:07:20.143Z,34.52
2023-04-14T18:09:47.230Z,34.59
2023-04-14T18:12:15.510Z,34.77
2023-04-14T18:14:44.494Z,35.24
2023-04-14T18:17:11.604Z,35.37
2023-04-14T18:19:39.192Z,35.81
2023-04-14T18:22:06.566Z,36.52
2023-04-14T18:28:02.648Z,37.04
2023-04-14T18:29:54.229Z,37.00
2023-04-14T18:32:22.457Z,37.15
2023-04-14T18:34:49.626Z,37.27
2023-04-14T18:37:16.854Z,37.59
2023-04-14T18:39:45.382Z,37.56
2023-04-14T18:42:12.399Z,37.82
2023-04-14T18:44:39.275Z,38.04
2023-04-14T18:47:07.577Z,38.19
2023-04-14T18:49:34.903Z,38.32
2023-04-14T18:52:02.220Z,38.44
2023-04-14T18:54:29.495Z,38.50
2023-04-14T18:56:56.449Z,38.74
2023-04-14T18:59:23.863Z,38.92
2023-04-14T19:01:50.935Z,38.86
2023-04-14T19:04:19.237Z,38.86
2023-04-14T19:06:48.121Z,39.33
2023-04-14T19:09:15.623Z,39.32
2023-04-14T19:11:42.628Z,39.78
2023-04-14T19:14:09.514Z,39.91
2023-04-14T19:16:36.635Z,39.78
2023-04-14T19:19:04.115Z,40.07
2023-04-14T19:21:32.577Z,40.47
2023-04-14T19:23:59.593Z,40.90
2023-04-14T19:26:27.509Z,41.05
2023-04-14T19:28:57.434Z,41.20
2023-04-14T19:31:25.836Z,41.85
2023-04-14T19:33:52.761Z,41.67
2023-04-14T19:36:19.877Z,41.81
2023-04-14T19:38:48.134Z,42.14
2023-04-14T19:41:15.547Z,42.34
2023-04-14T19:43:42.476Z,42.47
2023-04-14T19:46:12.562Z,42.54
2023-04-14T19:48:40.324Z,42.80
2023-04-14T19:51:07.354Z,43.21
2023-04-14T19:53:34.390Z,42.97
2023-04-14T19:56:05.379Z,43.35
2023-04-14T19:58:32.843Z,43.37
2023-04-14T20:01:00.866Z,43.79
2023-04-14T20:03:28.281Z,43.86
2023-04-14T20:05:57.217Z,44.03
2023-04-14T20:08:25.126Z,43.95
2023-04-14T20:10:54.074Z,44.41
2023-04-14T20:13:24.296Z,44.28
2023-04-14T20:15:53.816Z,44.85
2023-04-14T20:18:22.290Z,44.70
2023-04-14T20:20:49.529Z,44.73
2023-04-14T20:23:16.916Z,44.90
2023-04-14T20:25:44.894Z,45.08
2023-04-14T20:28:11.873Z,45.29
2023-04-14T20:30:40.186Z,45.38
2023-04-14T20:33:07.207Z,45.33
2023-04-14T20:35:36.371Z,45.69
2023-04-14T20:38:03.346Z,46.05
2023-04-14T20:40:31.051Z,46.10
2023-04-14T20:42:58.300Z,45.93
2023-04-14T20:45:25.363Z,46.15
2023-04-14T20:47:53.681Z,46.18
2023-04-14T20:50:21.040Z,46.50
2023-04-14T20:52:48.656Z,46.21
2023-04-14T20:55:18.030Z,46.32
2023-04-14T20:57:46.084Z,46.28
2023-04-14T21:00:16.699Z,46.24
2023-04-14T21:02:44.286Z,46.45
2023-04-14T21:05:15.292Z,46.06
2023-04-14T21:07:43.612Z,46.30
2023-04-14T21:10:12.218Z,46.48
2023-04-14T21:12:54.207Z,46.81
2023-04-14T21:15:51.286Z,46.78
2023-04-14T21:18:13.928Z,46.67
2023-04-14T21:20:43.372Z,46.55
2023-04-14T21:23:10.319Z,46.66
2023-04-14T21:25:37.630Z,46.71
2023-04-14T21:28:05.237Z,46.78
2023-04-14T21:30:32.137Z,46.98
2023-04-14T21:32:59.083Z,47.19
2023-04-14T21:35:26.171Z,46.93
2023-04-14T21:37:54.409Z,47.11
2023-04-14T21:40:21.609Z,46.91
2023-04-14T21:42:49.070Z,47.41
2023-04-14T21:45:16.486Z,47.16
2023-04-14T21:47:43.671Z,47.43
2023-04-14T21:50:11.227Z,47.11
2023-04-14T21:52:38.838Z,47.20
2023-04-14T21:55:09.153Z,47.47
2023-04-14T21:57:48.620Z,47.30
2023-04-14T22:00:17.489Z,47.48
2023-04-14T22:02:44.973Z,47.51
2023-04-14T22:05:12.869Z,47.70
2023-04-14T22:07:39.885Z,47.59
2023-04-14T22:10:09.068Z,47.72
2023-04-14T22:12:36.119Z,47.79
2023-04-14T22:15:04.109Z,47.66
2023-04-14T22:17:31.256Z,47.82
2023-04-14T22:19:59.123Z,47.76
2023-04-14T22:22:26.058Z,48.19
2023-04-14T22:24:54.543Z,48.39
2023-04-14T22:27:23.088Z,48.26
2023-04-14T22:29:50.045Z,48.22
2023-04-14T22:32:17.095Z,48.03
2023-04-14T22:34:44.024Z,47.92
2023-04-14T22:37:11.311Z,47.96
2023-04-14T22:39:38.230Z,47.95
2023-04-14T22:42:05.198Z,47.93
2023-04-14T22:44:33.477Z,47.49
2023-04-14T22:47:01.057Z,47.54
2023-04-14T22:49:28.007Z,47.37
2023-04-14T22:51:54.916Z,47.79
2023-04-14T22:54:22.048Z,47.98
2023-04-14T22:56:48.990Z,48.35
2023-04-14T22:59:16.699Z,48.17
2023-04-14T23:01:44.986Z,48.08
2023-04-14T23:04:12.068Z,48.23
2023-04-14T23:06:39.480Z,48.13
2023-04-14T23:09:06.401Z,48.23
2023-04-14T23:11:33.596Z,48.11
2023-04-14T23:14:00.667Z,48.15
2023-04-14T23:16:27.617Z,48.29
2023-04-14T23:18:56.068Z,48.41
2023-04-14T23:21:23.045Z,48.71
2023-04-14T23:23:50.393Z,48.92
2023-04-14T23:26:19.294Z,48.98
2023-04-14T23:28:46.506Z,48.85
2023-04-14T23:31:13.713Z,48.83
2023-04-14T23:33:40.926Z,48.72
2023-04-14T23:36:09.213Z,48.38
2023-04-14T23:38:36.454Z,48.46
2023-04-14T23:41:03.578Z,48.26
2023-04-14T23:43:30.505Z,48.16
2023-04-14T23:45:57.808Z,48.20
2023-04-14T23:48:25.777Z,48.39
2023-04-14T23:51:00.941Z,48.19
2023-04-14T23:53:41.278Z,48.14
2023-04-14T23:56:08.332Z,48.09
2023-04-14T23:58:35.227Z,48.24
